sensor_id;sensor_type;location;lat;lon;timestamp;temperature;humidity
67182;DHT22;54114;53.524;49.396;2022-07-29T00:01:29;23.50;56.80
67182;DHT22;54114;53.524;49.396;2022-07-29T00:03:56;23.40;57.00
67182;DHT22;54114;53.524;49.396;2022-07-29T00:06:23;23.30;57.10
67182;DHT22;54114;53.524;49.396;2022-07-29T00:08:49;23.30;57.30
67182;DHT22;54114;53.524;49.396;2022-07-29T00:11:16;23.20;57.60
67182;DHT22;54114;53.524;49.396;2022-07-29T00:13:43;23.00;57.90
67182;DHT22;54114;53.524;49.396;2022-07-29T00:16:10;22.90;58.30
67182;DHT22;54114;53.524;49.396;2022-07-29T00:18:36;22.80;58.70
67182;DHT22;54114;53.524;49.396;2022-07-29T00:21:05;22.70;59.00
67182;DHT22;54114;53.524;49.396;2022-07-29T00:23:32;22.70;59.20
67182;DHT22;54114;53.524;49.396;2022-07-29T00:25:58;22.70;59.20
67182;DHT22;54114;53.524;49.396;2022-07-29T00:28:25;22.70;59.30
67182;DHT22;54114;53.524;49.396;2022-07-29T00:30:52;22.70;59.30
67182;DHT22;54114;53.524;49.396;2022-07-29T00:33:18;22.70;59.30
67182;DHT22;54114;53.524;49.396;2022-07-29T00:35:45;22.70;59.20
67182;DHT22;54114;53.524;49.396;2022-07-29T00:38:13;22.80;59.00
67182;DHT22;54114;53.524;49.396;2022-07-29T00:40:42;22.70;59.00
67182;DHT22;54114;53.524;49.396;2022-07-29T00:43:10;22.70;59.00
67182;DHT22;54114;53.524;49.396;2022-07-29T00:45:37;22.70;59.10
67182;DHT22;54114;53.524;49.396;2022-07-29T00:48:04;22.70;59.10
67182;DHT22;54114;53.524;49.396;2022-07-29T00:50:31;22.60;59.20
67182;DHT22;54114;53.524;49.396;2022-07-29T00:52:59;22.60;59.30
67182;DHT22;54114;53.524;49.396;2022-07-29T00:55:27;22.60;59.50
67182;DHT22;54114;53.524;49.396;2022-07-29T00:57:53;22.60;60.20
67182;DHT22;54114;53.524;49.396;2022-07-29T01:00:25;22.60;59.60
67182;DHT22;54114;53.524;49.396;2022-07-29T01:02:53;22.50;59.70
67182;DHT22;54114;53.524;49.396;2022-07-29T01:05:23;22.40;59.70
67182;DHT22;54114;53.524;49.396;2022-07-29T01:07:53;22.40;59.90
67182;DHT22;54114;53.524;49.396;2022-07-29T01:10:21;22.40;60.10
67182;DHT22;54114;53.524;49.396;2022-07-29T01:12:49;22.30;60.10
67182;DHT22;54114;53.524;49.396;2022-07-29T01:15:17;22.30;60.30
67182;DHT22;54114;53.524;49.396;2022-07-29T01:26:58;22.30;60.60
67182;DHT22;54114;53.524;49.396;2022-07-29T01:29:38;22.30;60.50
67182;DHT22;54114;53.524;49.396;2022-07-29T01:32:15;22.30;60.40
67182;DHT22;54114;53.524;49.396;2022-07-29T01:40:48;22.30;60.90
67182;DHT22;54114;53.524;49.396;2022-07-29T01:43:20;22.40;60.80
67182;DHT22;54114;53.524;49.396;2022-07-29T01:45:53;22.40;60.30
67182;DHT22;54114;53.524;49.396;2022-07-29T01:48:34;22.40;60.80
67182;DHT22;54114;53.524;49.396;2022-07-29T01:51:10;22.40;61.00
67182;DHT22;54114;53.524;49.396;2022-07-29T01:54:08;22.50;61.30
67182;DHT22;54114;53.524;49.396;2022-07-29T01:56:39;22.60;61.00
67182;DHT22;54114;53.524;49.396;2022-07-29T01:59:10;22.80;60.80
67182;DHT22;54114;53.524;49.396;2022-07-29T02:01:38;23.00;60.20
67182;DHT22;54114;53.524;49.396;2022-07-29T02:04:07;23.20;59.50
67182;DHT22;54114;53.524;49.396;2022-07-29T02:06:38;23.40;59.20
67182;DHT22;54114;53.524;49.396;2022-07-29T02:09:06;23.50;58.70
67182;DHT22;54114;53.524;49.396;2022-07-29T02:11:34;23.60;58.50
67182;DHT22;54114;53.524;49.396;2022-07-29T02:14:02;23.60;58.40
67182;DHT22;54114;53.524;49.396;2022-07-29T02:16:31;23.60;58.60
67182;DHT22;54114;53.524;49.396;2022-07-29T02:19:01;23.70;58.90
67182;DHT22;54114;53.524;49.396;2022-07-29T02:21:30;23.90;58.60
67182;DHT22;54114;53.524;49.396;2022-07-29T02:24:01;24.10;57.80
67182;DHT22;54114;53.524;49.396;2022-07-29T02:26:29;24.40;57.10
67182;DHT22;54114;53.524;49.396;2022-07-29T02:28:59;24.50;56.20
67182;DHT22;54114;53.524;49.396;2022-07-29T02:31:30;24.60;55.50
67182;DHT22;54114;53.524;49.396;2022-07-29T02:34:01;24.90;55.20
67182;DHT22;54114;53.524;49.396;2022-07-29T02:36:29;25.00;54.70
67182;DHT22;54114;53.524;49.396;2022-07-29T02:38:58;25.20;54.30
67182;DHT22;54114;53.524;49.396;2022-07-29T02:41:47;25.30;53.80
67182;DHT22;54114;53.524;49.396;2022-07-29T02:44:17;25.50;53.10
67182;DHT22;54114;53.524;49.396;2022-07-29T02:47:19;25.70;52.70
67182;DHT22;54114;53.524;49.396;2022-07-29T02:52:58;26.10;50.70
67182;DHT22;54114;53.524;49.396;2022-07-29T02:55:44;26.30;49.80
67182;DHT22;54114;53.524;49.396;2022-07-29T02:58:28;26.50;49.00
67182;DHT22;54114;53.524;49.396;2022-07-29T03:01:03;26.70;48.40
67182;DHT22;54114;53.524;49.396;2022-07-29T03:03:36;26.90;47.50
67182;DHT22;54114;53.524;49.396;2022-07-29T03:06:05;27.10;47.10
67182;DHT22;54114;53.524;49.396;2022-07-29T03:08:34;27.30;46.50
67182;DHT22;54114;53.524;49.396;2022-07-29T03:11:01;27.50;45.80
67182;DHT22;54114;53.524;49.396;2022-07-29T03:13:29;27.70;45.30
67182;DHT22;54114;53.524;49.396;2022-07-29T03:15:58;27.90;44.60
67182;DHT22;54114;53.524;49.396;2022-07-29T03:18:25;28.10;44.30
67182;DHT22;54114;53.524;49.396;2022-07-29T03:20:52;28.20;43.90
67182;DHT22;54114;53.524;49.396;2022-07-29T03:23:20;28.50;43.40
67182;DHT22;54114;53.524;49.396;2022-07-29T03:25:49;28.80;42.90
67182;DHT22;54114;53.524;49.396;2022-07-29T03:28:16;29.10;42.60
67182;DHT22;54114;53.524;49.396;2022-07-29T03:30:43;29.40;42.10
67182;DHT22;54114;53.524;49.396;2022-07-29T03:33:10;29.60;41.60
67182;DHT22;54114;53.524;49.396;2022-07-29T03:35:37;29.80;41.10
67182;DHT22;54114;53.524;49.396;2022-07-29T03:38:07;29.90;40.70
67182;DHT22;54114;53.524;49.396;2022-07-29T03:40:40;30.20;40.40
67182;DHT22;54114;53.524;49.396;2022-07-29T03:43:11;30.40;39.80
67182;DHT22;54114;53.524;49.396;2022-07-29T03:45:41;30.70;39.50
67182;DHT22;54114;53.524;49.396;2022-07-29T03:48:12;30.80;38.80
67182;DHT22;54114;53.524;49.396;2022-07-29T03:50:41;30.90;38.40
67182;DHT22;54114;53.524;49.396;2022-07-29T03:53:08;31.00;38.30
67182;DHT22;54114;53.524;49.396;2022-07-29T03:55:45;31.20;37.90
67182;DHT22;54114;53.524;49.396;2022-07-29T03:58:13;31.30;37.40
67182;DHT22;54114;53.524;49.396;2022-07-29T04:00:41;31.30;37.60
67182;DHT22;54114;53.524;49.396;2022-07-29T04:03:08;31.30;37.20
67182;DHT22;54114;53.524;49.396;2022-07-29T04:05:35;31.30;37.10
67182;DHT22;54114;53.524;49.396;2022-07-29T04:08:02;31.40;37.00
67182;DHT22;54114;53.524;49.396;2022-07-29T04:10:29;31.50;36.90
67182;DHT22;54114;53.524;49.396;2022-07-29T04:12:56;31.60;36.60
67182;DHT22;54114;53.524;49.396;2022-07-29T04:15:22;31.50;36.50
67182;DHT22;54114;53.524;49.396;2022-07-29T04:17:49;31.60;36.80
67182;DHT22;54114;53.524;49.396;2022-07-29T04:20:16;31.80;36.70
67182;DHT22;54114;53.524;49.396;2022-07-29T04:22:43;32.10;36.40
67182;DHT22;54114;53.524;49.396;2022-07-29T04:25:09;32.30;36.10
67182;DHT22;54114;53.524;49.396;2022-07-29T04:27:36;32.50;35.70
67182;DHT22;54114;53.524;49.396;2022-07-29T04:30:23;32.40;35.60
67182;DHT22;54114;53.524;49.396;2022-07-29T04:32:49;32.50;35.40
67182;DHT22;54114;53.524;49.396;2022-07-29T04:35:16;32.80;35.30
67182;DHT22;54114;53.524;49.396;2022-07-29T04:37:43;33.00;34.80
67182;DHT22;54114;53.524;49.396;2022-07-29T04:40:10;33.10;34.60
67182;DHT22;54114;53.524;49.396;2022-07-29T04:42:38;33.30;34.40
67182;DHT22;54114;53.524;49.396;2022-07-29T04:45:05;33.40;34.00
67182;DHT22;54114;53.524;49.396;2022-07-29T04:47:32;33.40;33.90
67182;DHT22;54114;53.524;49.396;2022-07-29T04:49:59;33.50;33.70
67182;DHT22;54114;53.524;49.396;2022-07-29T04:52:26;33.60;33.40
67182;DHT22;54114;53.524;49.396;2022-07-29T04:54:53;33.60;33.90
67182;DHT22;54114;53.524;49.396;2022-07-29T04:57:19;33.70;33.20
67182;DHT22;54114;53.524;49.396;2022-07-29T04:59:46;33.70;32.90
67182;DHT22;54114;53.524;49.396;2022-07-29T05:02:13;33.70;32.90
67182;DHT22;54114;53.524;49.396;2022-07-29T05:04:40;33.80;32.90
67182;DHT22;54114;53.524;49.396;2022-07-29T05:07:06;33.90;32.60
67182;DHT22;54114;53.524;49.396;2022-07-29T05:09:33;34.00;32.50
67182;DHT22;54114;53.524;49.396;2022-07-29T05:12:00;34.20;32.40
67182;DHT22;54114;53.524;49.396;2022-07-29T05:14:27;34.40;32.30
67182;DHT22;54114;53.524;49.396;2022-07-29T05:16:54;34.70;32.10
67182;DHT22;54114;53.524;49.396;2022-07-29T05:19:23;35.00;31.60
67182;DHT22;54114;53.524;49.396;2022-07-29T05:21:49;35.20;32.00
67182;DHT22;54114;53.524;49.396;2022-07-29T05:24:16;35.50;31.10
67182;DHT22;54114;53.524;49.396;2022-07-29T05:26:43;35.60;30.50
67182;DHT22;54114;53.524;49.396;2022-07-29T05:29:10;35.70;30.30
67182;DHT22;54114;53.524;49.396;2022-07-29T05:31:37;35.80;30.00
67182;DHT22;54114;53.524;49.396;2022-07-29T05:34:03;35.80;30.00
67182;DHT22;54114;53.524;49.396;2022-07-29T05:36:30;36.00;29.80
67182;DHT22;54114;53.524;49.396;2022-07-29T05:38:57;36.10;29.80
67182;DHT22;54114;53.524;49.396;2022-07-29T05:41:23;36.30;29.80
67182;DHT22;54114;53.524;49.396;2022-07-29T05:43:50;36.40;29.60
67182;DHT22;54114;53.524;49.396;2022-07-29T05:46:17;36.50;29.50
67182;DHT22;54114;53.524;49.396;2022-07-29T05:48:45;36.50;29.30
67182;DHT22;54114;53.524;49.396;2022-07-29T05:51:12;36.50;29.30
67182;DHT22;54114;53.524;49.396;2022-07-29T05:53:38;36.60;29.10
67182;DHT22;54114;53.524;49.396;2022-07-29T05:56:05;36.70;28.90
67182;DHT22;54114;53.524;49.396;2022-07-29T05:58:33;36.70;28.60
67182;DHT22;54114;53.524;49.396;2022-07-29T06:00:59;36.70;28.60
67182;DHT22;54114;53.524;49.396;2022-07-29T06:03:26;36.80;28.40
67182;DHT22;54114;53.524;49.396;2022-07-29T06:05:53;36.70;28.70
67182;DHT22;54114;53.524;49.396;2022-07-29T06:08:20;36.70;28.20
67182;DHT22;54114;53.524;49.396;2022-07-29T06:10:47;36.70;28.20
67182;DHT22;54114;53.524;49.396;2022-07-29T06:13:13;36.80;27.90
67182;DHT22;54114;53.524;49.396;2022-07-29T06:15:42;36.60;27.90
67182;DHT22;54114;53.524;49.396;2022-07-29T06:18:09;36.70;28.10
67182;DHT22;54114;53.524;49.396;2022-07-29T06:20:36;36.80;28.00
67182;DHT22;54114;53.524;49.396;2022-07-29T06:23:03;36.90;27.80
67182;DHT22;54114;53.524;49.396;2022-07-29T06:25:30;37.00;27.70
67182;DHT22;54114;53.524;49.396;2022-07-29T06:28:01;37.10;27.70
67182;DHT22;54114;53.524;49.396;2022-07-29T06:30:29;37.30;27.70
67182;DHT22;54114;53.524;49.396;2022-07-29T06:32:56;37.40;27.50
67182;DHT22;54114;53.524;49.396;2022-07-29T06:35:22;37.30;27.40
67182;DHT22;54114;53.524;49.396;2022-07-29T06:37:49;37.30;27.40
67182;DHT22;54114;53.524;49.396;2022-07-29T06:40:16;37.30;27.30
67182;DHT22;54114;53.524;49.396;2022-07-29T06:43:02;37.20;27.20
67182;DHT22;54114;53.524;49.396;2022-07-29T06:45:29;37.00;27.20
67182;DHT22;54114;53.524;49.396;2022-07-29T06:47:55;37.00;27.30
67182;DHT22;54114;53.524;49.396;2022-07-29T06:50:22;37.20;27.50
67182;DHT22;54114;53.524;49.396;2022-07-29T06:52:49;37.40;27.30
67182;DHT22;54114;53.524;49.396;2022-07-29T06:55:15;37.60;27.80
67182;DHT22;54114;53.524;49.396;2022-07-29T06:57:45;37.60;27.10
67182;DHT22;54114;53.524;49.396;2022-07-29T07:00:12;37.70;27.10
67182;DHT22;54114;53.524;49.396;2022-07-29T07:02:39;37.80;27.10
67182;DHT22;54114;53.524;49.396;2022-07-29T07:05:06;37.80;27.00
67182;DHT22;54114;53.524;49.396;2022-07-29T07:07:33;37.90;26.70
67182;DHT22;54114;53.524;49.396;2022-07-29T07:10:01;38.00;26.60
67182;DHT22;54114;53.524;49.396;2022-07-29T07:12:27;38.00;26.60
67182;DHT22;54114;53.524;49.396;2022-07-29T07:14:54;38.10;26.60
67182;DHT22;54114;53.524;49.396;2022-07-29T07:17:21;38.10;26.40
67182;DHT22;54114;53.524;49.396;2022-07-29T07:19:48;38.10;26.50
67182;DHT22;54114;53.524;49.396;2022-07-29T07:22:14;38.10;26.40
67182;DHT22;54114;53.524;49.396;2022-07-29T07:24:41;38.10;26.40
67182;DHT22;54114;53.524;49.396;2022-07-29T07:27:08;38.10;26.40
67182;DHT22;54114;53.524;49.396;2022-07-29T07:29:34;38.10;26.30
67182;DHT22;54114;53.524;49.396;2022-07-29T07:32:02;38.20;26.40
67182;DHT22;54114;53.524;49.396;2022-07-29T07:34:29;38.30;26.30
67182;DHT22;54114;53.524;49.396;2022-07-29T07:36:56;38.30;26.20
67182;DHT22;54114;53.524;49.396;2022-07-29T07:39:22;38.40;26.20
67182;DHT22;54114;53.524;49.396;2022-07-29T07:41:49;38.70;26.40
67182;DHT22;54114;53.524;49.396;2022-07-29T07:44:16;39.00;26.20
67182;DHT22;54114;53.524;49.396;2022-07-29T07:46:43;39.20;25.90
67182;DHT22;54114;53.524;49.396;2022-07-29T07:49:11;39.40;25.90
67182;DHT22;54114;53.524;49.396;2022-07-29T07:51:38;39.80;25.60
67182;DHT22;54114;53.524;49.396;2022-07-29T07:54:04;39.80;25.30
67182;DHT22;54114;53.524;49.396;2022-07-29T07:56:31;39.70;25.30
67182;DHT22;54114;53.524;49.396;2022-07-29T07:58:58;39.70;25.30
67182;DHT22;54114;53.524;49.396;2022-07-29T08:01:25;39.70;25.50
67182;DHT22;54114;53.524;49.396;2022-07-29T08:03:52;40.10;25.50
67182;DHT22;54114;53.524;49.396;2022-07-29T08:06:19;40.60;25.30
67182;DHT22;54114;53.524;49.396;2022-07-29T08:08:45;41.00;25.00
67182;DHT22;54114;53.524;49.396;2022-07-29T08:11:12;40.90;24.80
67182;DHT22;54114;53.524;49.396;2022-07-29T08:13:40;40.70;24.60
67182;DHT22;54114;53.524;49.396;2022-07-29T08:16:07;40.60;24.70
67182;DHT22;54114;53.524;49.396;2022-07-29T08:18:39;40.70;24.80
67182;DHT22;54114;53.524;49.396;2022-07-29T08:21:06;40.90;24.90
67182;DHT22;54114;53.524;49.396;2022-07-29T08:23:33;40.80;24.70
67182;DHT22;54114;53.524;49.396;2022-07-29T08:26:11;40.70;24.70
67182;DHT22;54114;53.524;49.396;2022-07-29T08:28:40;40.70;24.70
67182;DHT22;54114;53.524;49.396;2022-07-29T08:31:10;40.70;24.70
67182;DHT22;54114;53.524;49.396;2022-07-29T08:33:38;40.70;24.70
67182;DHT22;54114;53.524;49.396;2022-07-29T08:36:05;40.90;24.60
67182;DHT22;54114;53.524;49.396;2022-07-29T08:38:33;41.10;24.70
67182;DHT22;54114;53.524;49.396;2022-07-29T08:41:03;41.30;24.50
67182;DHT22;54114;53.524;49.396;2022-07-29T08:43:30;41.40;24.40
67182;DHT22;54114;53.524;49.396;2022-07-29T08:45:57;41.50;24.70
67182;DHT22;54114;53.524;49.396;2022-07-29T08:48:24;41.70;25.10
67182;DHT22;54114;53.524;49.396;2022-07-29T08:50:55;41.70;24.40
67182;DHT22;54114;53.524;49.396;2022-07-29T08:53:25;41.90;24.20
67182;DHT22;54114;53.524;49.396;2022-07-29T08:55:53;42.00;24.00
67182;DHT22;54114;53.524;49.396;2022-07-29T08:58:21;42.10;23.90
67182;DHT22;54114;53.524;49.396;2022-07-29T09:00:53;42.10;23.70
67182;DHT22;54114;53.524;49.396;2022-07-29T09:03:23;42.00;24.40
67182;DHT22;54114;53.524;49.396;2022-07-29T09:05:51;41.90;24.00
67182;DHT22;54114;53.524;49.396;2022-07-29T09:08:18;41.90;23.90
67182;DHT22;54114;53.524;49.396;2022-07-29T09:10:46;41.90;23.90
67182;DHT22;54114;53.524;49.396;2022-07-29T09:13:19;42.00;23.90
67182;DHT22;54114;53.524;49.396;2022-07-29T09:15:46;42.20;23.80
67182;DHT22;54114;53.524;49.396;2022-07-29T09:18:29;42.50;23.70
67182;DHT22;54114;53.524;49.396;2022-07-29T09:20:59;42.70;23.50
67182;DHT22;54114;53.524;49.396;2022-07-29T09:26:35;42.40;23.90
67182;DHT22;54114;53.524;49.396;2022-07-29T09:29:21;42.50;23.50
67182;DHT22;54114;53.524;49.396;2022-07-29T09:31:51;42.70;23.50
67182;DHT22;54114;53.524;49.396;2022-07-29T09:34:24;42.80;23.40
67182;DHT22;54114;53.524;49.396;2022-07-29T09:36:52;42.80;23.30
67182;DHT22;54114;53.524;49.396;2022-07-29T09:39:38;42.80;23.50
67182;DHT22;54114;53.524;49.396;2022-07-29T09:42:12;42.90;23.60
67182;DHT22;54114;53.524;49.396;2022-07-29T09:44:49;42.90;23.40
67182;DHT22;54114;53.524;49.396;2022-07-29T09:47:17;42.80;23.30
67182;DHT22;54114;53.524;49.396;2022-07-29T09:49:58;42.90;23.20
67182;DHT22;54114;53.524;49.396;2022-07-29T09:52:29;42.70;23.30
67182;DHT22;54114;53.524;49.396;2022-07-29T09:55:10;42.90;23.40
67182;DHT22;54114;53.524;49.396;2022-07-29T09:57:36;43.20;23.20
67182;DHT22;54114;53.524;49.396;2022-07-29T10:00:09;43.20;23.10
67182;DHT22;54114;53.524;49.396;2022-07-29T10:02:39;43.00;23.10
67182;DHT22;54114;53.524;49.396;2022-07-29T10:05:18;43.00;23.20
67182;DHT22;54114;53.524;49.396;2022-07-29T10:07:56;43.20;23.20
67182;DHT22;54114;53.524;49.396;2022-07-29T10:10:29;43.40;23.10
67182;DHT22;54114;53.524;49.396;2022-07-29T10:13:02;43.40;23.00
67182;DHT22;54114;53.524;49.396;2022-07-29T10:15:35;43.20;22.90
67182;DHT22;54114;53.524;49.396;2022-07-29T10:18:05;43.20;22.70
67182;DHT22;54114;53.524;49.396;2022-07-29T10:20:33;43.20;22.90
67182;DHT22;54114;53.524;49.396;2022-07-29T10:23:00;43.50;22.80
67182;DHT22;54114;53.524;49.396;2022-07-29T10:25:26;43.70;22.60
67182;DHT22;54114;53.524;49.396;2022-07-29T10:27:54;43.90;22.50
67182;DHT22;54114;53.524;49.396;2022-07-29T10:30:23;44.20;22.10
67182;DHT22;54114;53.524;49.396;2022-07-29T10:33:21;44.60;22.10
67182;DHT22;54114;53.524;49.396;2022-07-29T10:44:51;44.60;21.90
67182;DHT22;54114;53.524;49.396;2022-07-29T10:47:23;44.40;21.80
67182;DHT22;54114;53.524;49.396;2022-07-29T10:50:04;44.30;21.80
67182;DHT22;54114;53.524;49.396;2022-07-29T10:52:54;44.10;21.80
67182;DHT22;54114;53.524;49.396;2022-07-29T10:55:39;44.10;21.80
67182;DHT22;54114;53.524;49.396;2022-07-29T11:00:40;44.10;21.60
67182;DHT22;54114;53.524;49.396;2022-07-29T11:03:07;44.10;21.70
67182;DHT22;54114;53.524;49.396;2022-07-29T11:05:56;44.00;21.60
67182;DHT22;54114;53.524;49.396;2022-07-29T11:08:23;43.80;21.40
67182;DHT22;54114;53.524;49.396;2022-07-29T11:11:37;43.70;21.50
67182;DHT22;54114;53.524;49.396;2022-07-29T11:13:45;43.70;21.40
67182;DHT22;54114;53.524;49.396;2022-07-29T11:16:17;44.10;21.40
67182;DHT22;54114;53.524;49.396;2022-07-29T11:21:43;44.90;21.30
67182;DHT22;54114;53.524;49.396;2022-07-29T11:24:23;45.00;21.30
67182;DHT22;54114;53.524;49.396;2022-07-29T11:27:15;45.10;21.20
67182;DHT22;54114;53.524;49.396;2022-07-29T11:29:52;45.10;21.00
67182;DHT22;54114;53.524;49.396;2022-07-29T11:32:22;45.00;21.00
67182;DHT22;54114;53.524;49.396;2022-07-29T11:35:13;45.10;21.80
67182;DHT22;54114;53.524;49.396;2022-07-29T11:38:41;44.60;21.70
67182;DHT22;54114;53.524;49.396;2022-07-29T11:41:20;44.20;22.20
67182;DHT22;54114;53.524;49.396;2022-07-29T11:43:59;44.10;22.30
67182;DHT22;54114;53.524;49.396;2022-07-29T11:46:49;43.90;22.40
67182;DHT22;54114;53.524;49.396;2022-07-29T11:49:26;43.40;22.40
67182;DHT22;54114;53.524;49.396;2022-07-29T11:51:54;42.90;22.50
67182;DHT22;54114;53.524;49.396;2022-07-29T11:54:29;42.50;22.70
67182;DHT22;54114;53.524;49.396;2022-07-29T11:56:58;42.00;22.90
67182;DHT22;54114;53.524;49.396;2022-07-29T11:59:25;41.60;23.00
67182;DHT22;54114;53.524;49.396;2022-07-29T12:01:56;41.20;23.10
67182;DHT22;54114;53.524;49.396;2022-07-29T12:04:25;41.10;23.20
67182;DHT22;54114;53.524;49.396;2022-07-29T12:06:56;40.90;23.40
67182;DHT22;54114;53.524;49.396;2022-07-29T12:09:23;40.70;24.00
67182;DHT22;54114;53.524;49.396;2022-07-29T12:11:56;40.90;23.60
67182;DHT22;54114;53.524;49.396;2022-07-29T12:14:29;40.90;23.60
67182;DHT22;54114;53.524;49.396;2022-07-29T12:16:57;41.00;23.40
67182;DHT22;54114;53.524;49.396;2022-07-29T12:19:25;41.10;23.30
67182;DHT22;54114;53.524;49.396;2022-07-29T12:21:55;41.20;23.30
67182;DHT22;54114;53.524;49.396;2022-07-29T12:24:24;41.40;23.10
67182;DHT22;54114;53.524;49.396;2022-07-29T12:26:55;41.10;23.10
67182;DHT22;54114;53.524;49.396;2022-07-29T12:29:23;40.70;23.30
67182;DHT22;54114;53.524;49.396;2022-07-29T12:31:53;40.40;23.30
67182;DHT22;54114;53.524;49.396;2022-07-29T12:34:23;40.00;23.50
67182;DHT22;54114;53.524;49.396;2022-07-29T12:36:50;39.50;23.70
67182;DHT22;54114;53.524;49.396;2022-07-29T12:39:17;39.10;24.00
67182;DHT22;54114;53.524;49.396;2022-07-29T12:41:44;38.80;24.10
67182;DHT22;54114;53.524;49.396;2022-07-29T12:44:11;38.50;24.10
67182;DHT22;54114;53.524;49.396;2022-07-29T12:46:38;38.20;24.10
67182;DHT22;54114;53.524;49.396;2022-07-29T12:49:04;38.10;24.20
67182;DHT22;54114;53.524;49.396;2022-07-29T12:51:39;37.90;24.00
67182;DHT22;54114;53.524;49.396;2022-07-29T12:54:07;38.00;24.10
67182;DHT22;54114;53.524;49.396;2022-07-29T12:56:37;38.10;24.10
67182;DHT22;54114;53.524;49.396;2022-07-29T12:59:16;38.20;24.20
67182;DHT22;54114;53.524;49.396;2022-07-29T13:01:50;38.10;24.50
67182;DHT22;54114;53.524;49.396;2022-07-29T13:04:31;38.10;24.60
67182;DHT22;54114;53.524;49.396;2022-07-29T13:07:03;38.30;24.40
67182;DHT22;54114;53.524;49.396;2022-07-29T13:09:42;38.70;24.20
67182;DHT22;54114;53.524;49.396;2022-07-29T13:12:12;39.00;24.20
67182;DHT22;54114;53.524;49.396;2022-07-29T13:14:41;39.20;23.90
67182;DHT22;54114;53.524;49.396;2022-07-29T13:17:14;39.30;24.00
67182;DHT22;54114;53.524;49.396;2022-07-29T13:20:05;39.40;24.20
67182;DHT22;54114;53.524;49.396;2022-07-29T13:22:35;39.90;24.10
67182;DHT22;54114;53.524;49.396;2022-07-29T13:25:02;39.90;24.20
67182;DHT22;54114;53.524;49.396;2022-07-29T13:27:31;39.90;24.20
67182;DHT22;54114;53.524;49.396;2022-07-29T13:30:00;39.90;24.10
67182;DHT22;54114;53.524;49.396;2022-07-29T13:32:30;40.00;23.70
67182;DHT22;54114;53.524;49.396;2022-07-29T13:34:59;40.10;23.60
67182;DHT22;54114;53.524;49.396;2022-07-29T13:37:27;40.30;23.50
67182;DHT22;54114;53.524;49.396;2022-07-29T13:39:56;40.40;23.40
67182;DHT22;54114;53.524;49.396;2022-07-29T13:42:23;40.50;23.20
67182;DHT22;54114;53.524;49.396;2022-07-29T13:44:50;40.40;23.00
67182;DHT22;54114;53.524;49.396;2022-07-29T13:47:18;40.10;23.10
67182;DHT22;54114;53.524;49.396;2022-07-29T13:49:46;40.10;23.30
67182;DHT22;54114;53.524;49.396;2022-07-29T13:52:13;40.10;23.30
67182;DHT22;54114;53.524;49.396;2022-07-29T13:54:39;39.80;23.40
67182;DHT22;54114;53.524;49.396;2022-07-29T13:57:06;39.50;24.00
67182;DHT22;54114;53.524;49.396;2022-07-29T13:59:33;39.20;23.90
67182;DHT22;54114;53.524;49.396;2022-07-29T14:02:00;39.10;24.30
67182;DHT22;54114;53.524;49.396;2022-07-29T14:04:29;39.30;24.90
67182;DHT22;54114;53.524;49.396;2022-07-29T14:06:56;39.40;25.10
67182;DHT22;54114;53.524;49.396;2022-07-29T14:09:22;39.50;25.00
67182;DHT22;54114;53.524;49.396;2022-07-29T14:11:49;39.60;25.40
67182;DHT22;54114;53.524;49.396;2022-07-29T14:14:17;39.70;25.20
67182;DHT22;54114;53.524;49.396;2022-07-29T14:16:43;39.80;25.30
67182;DHT22;54114;53.524;49.396;2022-07-29T14:19:10;39.80;25.60
67182;DHT22;54114;53.524;49.396;2022-07-29T14:21:38;39.60;25.50
67182;DHT22;54114;53.524;49.396;2022-07-29T14:24:05;39.40;25.30
67182;DHT22;54114;53.524;49.396;2022-07-29T14:26:32;39.20;25.00
67182;DHT22;54114;53.524;49.396;2022-07-29T14:28:59;38.80;25.10
67182;DHT22;54114;53.524;49.396;2022-07-29T14:31:25;38.70;25.40
67182;DHT22;54114;53.524;49.396;2022-07-29T14:33:52;38.70;25.40
67182;DHT22;54114;53.524;49.396;2022-07-29T14:36:18;38.70;25.20
67182;DHT22;54114;53.524;49.396;2022-07-29T14:38:45;38.90;25.60
67182;DHT22;54114;53.524;49.396;2022-07-29T14:41:12;39.20;26.20
67182;DHT22;54114;53.524;49.396;2022-07-29T14:43:38;39.50;26.20
67182;DHT22;54114;53.524;49.396;2022-07-29T14:46:05;39.80;26.50
67182;DHT22;54114;53.524;49.396;2022-07-29T14:48:32;40.00;26.10
67182;DHT22;54114;53.524;49.396;2022-07-29T14:50:59;39.90;25.60
67182;DHT22;54114;53.524;49.396;2022-07-29T14:53:26;39.80;26.40
67182;DHT22;54114;53.524;49.396;2022-07-29T14:55:53;39.90;26.30
67182;DHT22;54114;53.524;49.396;2022-07-29T14:58:20;39.90;26.30
67182;DHT22;54114;53.524;49.396;2022-07-29T15:00:48;40.00;26.20
67182;DHT22;54114;53.524;49.396;2022-07-29T15:03:14;40.00;26.30
67182;DHT22;54114;53.524;49.396;2022-07-29T15:05:41;40.00;26.70
67182;DHT22;54114;53.524;49.396;2022-07-29T15:08:08;40.00;26.80
67182;DHT22;54114;53.524;49.396;2022-07-29T15:10:35;40.00;26.60
67182;DHT22;54114;53.524;49.396;2022-07-29T15:13:07;39.80;26.60
67182;DHT22;54114;53.524;49.396;2022-07-29T15:15:34;39.60;27.50
67182;DHT22;54114;53.524;49.396;2022-07-29T15:18:01;39.40;27.90
67182;DHT22;54114;53.524;49.396;2022-07-29T15:20:28;39.40;28.10
67182;DHT22;54114;53.524;49.396;2022-07-29T15:22:56;39.50;28.40
67182;DHT22;54114;53.524;49.396;2022-07-29T15:25:24;39.50;28.20
67182;DHT22;54114;53.524;49.396;2022-07-29T15:27:51;39.50;28.70
67182;DHT22;54114;53.524;49.396;2022-07-29T15:30:18;39.50;28.60
67182;DHT22;54114;53.524;49.396;2022-07-29T15:32:45;39.50;28.60
67182;DHT22;54114;53.524;49.396;2022-07-29T15:35:12;39.40;28.40
67182;DHT22;54114;53.524;49.396;2022-07-29T15:37:39;39.40;28.10
67182;DHT22;54114;53.524;49.396;2022-07-29T15:40:06;39.30;28.10
67182;DHT22;54114;53.524;49.396;2022-07-29T15:42:35;39.30;28.10
67182;DHT22;54114;53.524;49.396;2022-07-29T15:45:03;39.20;28.20
67182;DHT22;54114;53.524;49.396;2022-07-29T15:47:30;39.20;28.20
67182;DHT22;54114;53.524;49.396;2022-07-29T15:49:57;39.10;28.10
67182;DHT22;54114;53.524;49.396;2022-07-29T15:52:24;39.00;28.20
67182;DHT22;54114;53.524;49.396;2022-07-29T15:54:50;38.90;28.30
67182;DHT22;54114;53.524;49.396;2022-07-29T15:57:17;38.70;28.40
67182;DHT22;54114;53.524;49.396;2022-07-29T15:59:44;38.50;28.30
67182;DHT22;54114;53.524;49.396;2022-07-29T16:02:11;38.30;28.50
67182;DHT22;54114;53.524;49.396;2022-07-29T16:04:37;38.20;29.30
67182;DHT22;54114;53.524;49.396;2022-07-29T16:07:04;37.80;29.60